Sanctuary — WDI2390 — position and weather

sailwx.info

Track history (hours):
 
Tides and Currents Weather Stations Pressure Air Temp Water Temp Dewpoint Dewpoint Depression Visibility Wind Speed Wind Dir Waves Ship Positions

Sanctuary

Owner: Boston Harbor Cruises, Boston, MA. More information available from US FCC via Universal Licensing System and Coast Guard Vessel Documentation Center.

Last reported at 2017-Oct-06 13:35 UTC. Time now 2017-Oct-22 17:11 UTC.
Position N 42°23' W 071°03'.
Warning: this ship's position is 16 days out of date.

Length 35 m; draft 2.9 m.

Type: High speed craft. MMSI: 367677570.

Date/timePositionNaut miles runAvg speedWind from/ knotsBaromVisibWave heightAir tempDewpointWater temp
2017-Oct-06 13:35N 42°23' W 071°03'0 0.2
2017-Oct-06 13:30N 42°23' W 071°03'0 0.1
2017-Oct-06 13:00N 42°23' W 071°03'0 0.0
2017-Oct-06 12:30N 42°23' W 071°03'2 4.0
2017-Oct-06 12:01N 42°21' W 071°02'814.9
2017-Oct-06 11:30N 42°15' W 070°55'2 4.3
2017-Oct-06 11:00N 42°15' W 070°58'2 0.1
2017-Oct-05 13:05N 42°16' W 070°56'229.2
2017-Oct-05 13:00N 42°18' W 070°58'510.3
2017-Oct-05 12:30N 42°21' W 071°03'812.5
2017-Oct-05 11:51N 42°15' W 070°55'515.0
2017-Oct-05 11:31N 42°19' W 070°60'3 6.5
2017-Oct-05 11:00N 42°21' W 071°03'814.8
2017-Oct-05 10:27N 42°15' W 070°55'0 0.0
2017-Oct-04 22:15N 42°15' W 070°55'2 7.8
2017-Oct-04 22:00N 42°17' W 070°57'613.0
2017-Oct-04 21:31N 42°21' W 071°03'713.1
2017-Oct-04 21:00N 42°18' W 070°55'2 4.5
2017-Oct-04 20:30N 42°15' W 070°55'817.0
2017-Oct-04 20:00N 42°21' W 071°03'0 0.4
2017-Oct-04 19:30N 42°21' W 071°03'816.4
2017-Oct-04 19:00N 42°15' W 070°55'0 0.0
2017-Oct-04 15:52N 42°15' W 070°55'0 0.0
2017-Oct-04 15:24N 42°15' W 070°55'0 0.0
2017-Oct-04 14:56N 42°15' W 070°55'0 0.0
2017-Oct-04 14:27N 42°15' W 070°55'0 0.0
2017-Oct-04 13:51N 42°15' W 070°55'410.8
2017-Oct-04 13:31N 42°18' W 070°58'5 9.0
2017-Oct-04 13:00N 42°22' W 071°02'0 0.8
2017-Oct-04 12:30N 42°21' W 071°03'810.5
2017-Oct-04 11:44N 42°15' W 070°55'416.7
2017-Oct-04 11:30N 42°18' W 070°59'4 8.8
2017-Oct-04 11:00N 42°21' W 071°03'814.7
2017-Oct-04 10:26N 42°15' W 070°55'0 0.0
2017-Oct-03 22:23N 42°15' W 070°55'2 4.5
2017-Oct-03 22:01N 42°17' W 070°56'713.5
2017-Oct-03 21:31N 42°21' W 071°03'510.5
2017-Oct-03 21:01N 42°19' W 070°56'4 7.1
2017-Oct-03 20:27N 42°15' W 070°55'818.3
2017-Oct-03 20:00N 42°21' W 071°03'0 0.3
2017-Oct-03 19:31N 42°21' W 071°03'1 1.4
2017-Oct-03 19:00N 42°22' W 071°02'0 0.0
2017-Oct-03 18:30N 42°22' W 071°02'0 0.0
2017-Oct-03 18:00N 42°22' W 071°02'0 0.0
2017-Oct-03 17:30N 42°22' W 071°02'0 0.0
2017-Oct-03 17:00N 42°22' W 071°02'0 0.0
2017-Oct-03 16:31N 42°22' W 071°02'0 0.0
2017-Oct-03 16:00N 42°22' W 071°02'0 0.0
2017-Oct-03 15:31N 42°22' W 071°02'1 1.5
2017-Oct-03 15:01N 42°22' W 071°03'0 0.0
2017-Oct-03 14:00N 42°22' W 071°03'0 0.0
2017-Oct-03 13:31N 42°22' W 071°03'0 0.6
2017-Oct-03 13:00N 42°21' W 071°03'0 0.6
2017-Oct-03 12:30N 42°21' W 071°02'810.3
2017-Oct-03 11:45N 42°15' W 070°55'415.4
2017-Oct-03 11:30N 42°18' W 070°58'5 9.0
2017-Oct-03 11:00N 42°21' W 071°03'815.4
2017-Oct-03 10:28N 42°15' W 070°55'0 0.4
2017-Oct-03 10:01N 42°15' W 070°55'0 0.1
2017-Oct-03 09:30N 42°15' W 070°55'1 0.1
2017-Oct-03 01:49N 42°16' W 070°56'617.6
2017-Oct-03 01:31N 42°20' W 070°60'3 5.2
2017-Oct-03 01:01N 42°22' W 071°03'917.2
2017-Oct-03 00:30N 42°15' W 070°55'4 7.5
2017-Oct-03 00:00N 42°18' W 070°58'5 9.7
2017-Oct-02 23:31N 42°22' W 071°03'916.7
2017-Oct-02 23:00N 42°15' W 070°55'3 5.9
2017-Oct-02 22:31N 42°18' W 070°55'713.2
2017-Oct-02 22:01N 42°22' W 071°03'0 0.5
2017-Oct-02 21:31N 42°22' W 071°03'4 8.4
2017-Oct-02 21:00N 42°18' W 070°59'4 7.4
2017-Oct-02 20:28N 42°15' W 070°55'817.8
2017-Oct-02 20:01N 42°21' W 071°03'0 0.0
2017-Oct-02 19:30N 42°21' W 071°03'0 0.8
2017-Oct-02 19:01N 42°21' W 071°02'0 0.6
2017-Oct-02 18:31N 42°22' W 071°02'1 1.3
2017-Oct-02 18:01N 42°22' W 071°03'0 1.0
2017-Oct-02 17:31N 42°22' W 071°03'0 1.0
2017-Oct-02 17:00N 42°22' W 071°03'1 1.0
2017-Oct-02 16:31N 42°22' W 071°03'0 0.2
2017-Oct-02 16:00N 42°22' W 071°03'0 0.0
2017-Oct-02 15:30N 42°22' W 071°03'0 0.0
2017-Oct-02 15:00N 42°22' W 071°03'0 0.0
2017-Oct-02 14:31N 42°22' W 071°03'0 0.3
2017-Oct-02 14:00N 42°22' W 071°03'1 1.3
2017-Oct-02 13:30N 42°21' W 071°02'1 1.5
2017-Oct-02 13:00N 42°22' W 071°03'0 0.5
2017-Oct-02 12:31N 42°21' W 071°03'816.3
2017-Oct-02 12:00N 42°15' W 070°55'612.1
2017-Oct-02 11:31N 42°20' W 071°00'2 5.0
2017-Oct-02 11:00N 42°21' W 071°03'810.9
2017-Oct-02 10:14N 42°15' W 070°55'0 0.8
2017-Oct-02 10:01N 42°15' W 070°55'  
2017-Sep-29 22:04N 42°16' W 070°56'119.6
2017-Sep-29 22:01N 42°17' W 070°56'713.0
2017-Sep-29 21:31N 42°21' W 071°03'611.2
2017-Sep-29 21:01N 42°17' W 070°57'3 5.1
2017-Sep-29 20:30N 42°15' W 070°55'816.5
2017-Sep-29 20:00N 42°21' W 071°03'0 0.0
2017-Sep-29 19:30N 42°21' W 071°03'611.7
2017-Sep-29 19:00N 42°19' W 070°56'3 5.2
2017-Sep-29 18:30N 42°16' W 070°56'815.8
2017-Sep-29 18:01N 42°22' W 071°03'612.4
2017-Sep-29 17:30N 42°18' W 070°56'2 3.6
2017-Sep-29 17:00N 42°18' W 070°58'510.6
2017-Sep-29 16:30N 42°21' W 071°03'0 0.0
2017-Sep-29 16:00N 42°21' W 071°03'0 0.3
2017-Sep-29 15:31N 42°21' W 071°03'1 2.0
2017-Sep-29 15:00N 42°22' W 071°03'1 1.9
2017-Sep-29 14:31N 42°21' W 071°03'0 0.6
2017-Sep-29 14:00N 42°22' W 071°03'0 0.0
2017-Sep-29 13:29N 42°22' W 071°03'0 0.0
2017-Sep-29 13:01N 42°22' W 071°03'0 0.7
2017-Sep-29 12:30N 42°21' W 071°03'810.7
2017-Sep-29 11:45N 42°15' W 070°55'415.9
2017-Sep-29 11:30N 42°18' W 070°59'4 8.8
2017-Sep-29 11:00N 42°21' W 071°03'813.6
2017-Sep-29 10:23N 42°15' W 070°55'0 0.0
2017-Sep-28 22:16N 42°15' W 070°55'1 5.1
2017-Sep-28 22:01N 42°16' W 070°56'714.1
2017-Sep-28 21:30N 42°21' W 071°03'5 9.8
2017-Sep-28 21:00N 42°18' W 070°58'3 6.3
2017-Sep-28 20:29N 42°15' W 070°55'817.4
2017-Sep-28 20:00N 42°21' W 071°03'0 0.1
2017-Sep-28 19:30N 42°21' W 071°03'1 1.3
2017-Sep-28 19:01N 42°22' W 071°02'0 0.4
2017-Sep-28 18:30N 42°22' W 071°02'0 1.0
2017-Sep-28 18:01N 42°22' W 071°03'1 1.6
2017-Sep-28 17:31N 42°21' W 071°02'1 1.3
2017-Sep-28 17:01N 42°22' W 071°03'4 7.8
2017-Sep-28 16:31N 42°20' W 070°58'510.4
2017-Sep-28 16:01N 42°15' W 070°55'4 7.5
2017-Sep-28 15:31N 42°19' W 070°56'611.4
2017-Sep-28 15:00N 42°22' W 071°03'0 0.5
2017-Sep-28 14:30N 42°22' W 071°03'0 0.2
2017-Sep-28 14:00N 42°22' W 071°03'612.2
2017-Sep-28 13:31N 42°17' W 070°57'1 2.1
2017-Sep-28 13:01N 42°16' W 070°56'714.1
2017-Sep-28 12:31N 42°21' W 071°03'814.2
2017-Sep-28 11:56N 42°15' W 070°55'511.3
2017-Sep-28 11:31N 42°19' W 070°59'3 7.0
2017-Sep-28 11:00N 42°21' W 071°03'8 0.6
2017-Sep-27 22:13N 42°15' W 070°55'1 6.8
2017-Sep-27 22:00N 42°17' W 070°56'714.0
2017-Sep-27 21:30N 42°21' W 071°03'5 9.3
2017-Sep-27 21:00N 42°18' W 070°58'4 6.6
2017-Sep-27 20:28N 42°15' W 070°55'817.8
2017-Sep-27 20:00N 42°21' W 071°03'0 0.1
2017-Sep-27 19:31N 42°21' W 071°03'2 3.1
2017-Sep-27 19:00N 42°23' W 071°03'0 0.0
2017-Sep-27 18:30N 42°23' W 071°03'1 2.6
2017-Sep-27 18:00N 42°22' W 071°03'0 0.1
2017-Sep-27 17:30N 42°22' W 071°03'0 0.0
2017-Sep-27 17:00N 42°22' W 071°03'0 0.0
2017-Sep-27 16:30N 42°22' W 071°03'0 0.0
2017-Sep-27 16:00N 42°22' W 071°03'0 0.0
2017-Sep-27 15:30N 42°22' W 071°03'0 0.0
2017-Sep-27 15:00N 42°22' W 071°03'0 0.0
2017-Sep-27 14:30N 42°22' W 071°03'0 0.0
2017-Sep-27 14:00N 42°22' W 071°03'0 0.0
2017-Sep-27 13:30N 42°22' W 071°03'0 0.5
2017-Sep-27 13:00N 42°21' W 071°03'714.8
2017-Sep-27 12:30N 42°16' W 070°56'1 1.5
2017-Sep-27 12:00N 42°16' W 070°55'816.3
2017-Sep-27 11:31N 42°21' W 071°03'713.4
2017-Sep-27 11:00N 42°17' W 070°56'2 3.3
2017-Sep-27 10:28N 42°15' W 070°55'0 0.0
2017-Sep-27 10:00N 42°15' W 070°55'1 0.1
2017-Sep-26 22:07N 42°16' W 070°55'113.3
2017-Sep-26 22:00N 42°17' W 070°57'612.8
2017-Sep-26 21:30N 42°21' W 071°03'5 9.4
2017-Sep-26 21:00N 42°18' W 070°58'3 6.9
2017-Sep-26 20:31N 42°16' W 070°55'816.1
2017-Sep-26 20:00N 42°21' W 071°03'0 0.0
2017-Sep-26 19:31N 42°21' W 071°03'816.7
2017-Sep-26 19:00N 42°15' W 070°55'0 0.1
2017-Sep-26 18:28N 42°15' W 070°55'0 0.0
2017-Sep-26 15:57N 42°15' W 070°55'0 0.0
2017-Sep-26 15:28N 42°15' W 070°55'715.3
2017-Sep-26 15:01N 42°21' W 071°01'1 2.9
2017-Sep-26 14:30N 42°22' W 071°03'0 0.6
2017-Sep-26 13:59N 42°22' W 071°03'  
Track history (hours):
 
Tides and Currents Weather Stations Pressure Air Temp Water Temp Dewpoint Dewpoint Depression Visibility Wind Speed Wind Dir Waves Ship Positions

Sanctuary

Owner: Boston Harbor Cruises, Boston, MA. More information available from US FCC via Universal Licensing System and Coast Guard Vessel Documentation Center.

Last reported at 2017-Oct-06 13:35 UTC. Time now 2017-Oct-22 17:11 UTC.
Position N 42°23' W 071°03'.
Warning: this ship's position is 16 days out of date.

Length 35 m; draft 2.9 m.

Type: High speed craft. MMSI: 367677570.

Date/timePositionNaut miles runAvg speedWind from/ knotsBaromVisibWave heightAir tempDewpointWater temp
2017-Oct-06 13:35N 42°23' W 071°03'0 0.2
2017-Oct-06 13:30N 42°23' W 071°03'0 0.1
2017-Oct-06 13:00N 42°23' W 071°03'0 0.0
2017-Oct-06 12:30N 42°23' W 071°03'2 4.0
2017-Oct-06 12:01N 42°21' W 071°02'814.9
2017-Oct-06 11:30N 42°15' W 070°55'2 4.3
2017-Oct-06 11:00N 42°15' W 070°58'2 0.1
2017-Oct-05 13:05N 42°16' W 070°56'229.2
2017-Oct-05 13:00N 42°18' W 070°58'510.3
2017-Oct-05 12:30N 42°21' W 071°03'812.5
2017-Oct-05 11:51N 42°15' W 070°55'515.0
2017-Oct-05 11:31N 42°19' W 070°60'3 6.5
2017-Oct-05 11:00N 42°21' W 071°03'814.8
2017-Oct-05 10:27N 42°15' W 070°55'0 0.0
2017-Oct-04 22:15N 42°15' W 070°55'2 7.8
2017-Oct-04 22:00N 42°17' W 070°57'613.0
2017-Oct-04 21:31N 42°21' W 071°03'713.1
2017-Oct-04 21:00N 42°18' W 070°55'2 4.5
2017-Oct-04 20:30N 42°15' W 070°55'817.0
2017-Oct-04 20:00N 42°21' W 071°03'0 0.4
2017-Oct-04 19:30N 42°21' W 071°03'816.4
2017-Oct-04 19:00N 42°15' W 070°55'0 0.0
2017-Oct-04 15:52N 42°15' W 070°55'0 0.0
2017-Oct-04 15:24N 42°15' W 070°55'0 0.0
2017-Oct-04 14:56N 42°15' W 070°55'0 0.0
2017-Oct-04 14:27N 42°15' W 070°55'0 0.0
2017-Oct-04 13:51N 42°15' W 070°55'410.8
2017-Oct-04 13:31N 42°18' W 070°58'5 9.0
2017-Oct-04 13:00N 42°22' W 071°02'0 0.8
2017-Oct-04 12:30N 42°21' W 071°03'810.5
2017-Oct-04 11:44N 42°15' W 070°55'416.7
2017-Oct-04 11:30N 42°18' W 070°59'4 8.8
2017-Oct-04 11:00N 42°21' W 071°03'814.7
2017-Oct-04 10:26N 42°15' W 070°55'0 0.0
2017-Oct-03 22:23N 42°15' W 070°55'2 4.5
2017-Oct-03 22:01N 42°17' W 070°56'713.5
2017-Oct-03 21:31N 42°21' W 071°03'510.5
2017-Oct-03 21:01N 42°19' W 070°56'4 7.1
2017-Oct-03 20:27N 42°15' W 070°55'818.3
2017-Oct-03 20:00N 42°21' W 071°03'0 0.3
2017-Oct-03 19:31N 42°21' W 071°03'1 1.4
2017-Oct-03 19:00N 42°22' W 071°02'0 0.0
2017-Oct-03 18:30N 42°22' W 071°02'0 0.0
2017-Oct-03 18:00N 42°22' W 071°02'0 0.0
2017-Oct-03 17:30N 42°22' W 071°02'0 0.0
2017-Oct-03 17:00N 42°22' W 071°02'0 0.0
2017-Oct-03 16:31N 42°22' W 071°02'0 0.0
2017-Oct-03 16:00N 42°22' W 071°02'0 0.0
2017-Oct-03 15:31N 42°22' W 071°02'1 1.5
2017-Oct-03 15:01N 42°22' W 071°03'0 0.0
2017-Oct-03 14:00N 42°22' W 071°03'0 0.0
2017-Oct-03 13:31N 42°22' W 071°03'0 0.6
2017-Oct-03 13:00N 42°21' W 071°03'0 0.6
2017-Oct-03 12:30N 42°21' W 071°02'810.3
2017-Oct-03 11:45N 42°15' W 070°55'415.4
2017-Oct-03 11:30N 42°18' W 070°58'5 9.0
2017-Oct-03 11:00N 42°21' W 071°03'815.4
2017-Oct-03 10:28N 42°15' W 070°55'0 0.4
2017-Oct-03 10:01N 42°15' W 070°55'0 0.1
2017-Oct-03 09:30N 42°15' W 070°55'1 0.1
2017-Oct-03 01:49N 42°16' W 070°56'617.6
2017-Oct-03 01:31N 42°20' W 070°60'3 5.2
2017-Oct-03 01:01N 42°22' W 071°03'917.2
2017-Oct-03 00:30N 42°15' W 070°55'4 7.5
2017-Oct-03 00:00N 42°18' W 070°58'5 9.7
2017-Oct-02 23:31N 42°22' W 071°03'916.7
2017-Oct-02 23:00N 42°15' W 070°55'3 5.9
2017-Oct-02 22:31N 42°18' W 070°55'713.2
2017-Oct-02 22:01N 42°22' W 071°03'0 0.5
2017-Oct-02 21:31N 42°22' W 071°03'4 8.4
2017-Oct-02 21:00N 42°18' W 070°59'4 7.4
2017-Oct-02 20:28N 42°15' W 070°55'817.8
2017-Oct-02 20:01N 42°21' W 071°03'0 0.0
2017-Oct-02 19:30N 42°21' W 071°03'0 0.8
2017-Oct-02 19:01N 42°21' W 071°02'0 0.6
2017-Oct-02 18:31N 42°22' W 071°02'1 1.3
2017-Oct-02 18:01N 42°22' W 071°03'0 1.0
2017-Oct-02 17:31N 42°22' W 071°03'0 1.0
2017-Oct-02 17:00N 42°22' W 071°03'1 1.0
2017-Oct-02 16:31N 42°22' W 071°03'0 0.2
2017-Oct-02 16:00N 42°22' W 071°03'0 0.0
2017-Oct-02 15:30N 42°22' W 071°03'0 0.0
2017-Oct-02 15:00N 42°22' W 071°03'0 0.0
2017-Oct-02 14:31N 42°22' W 071°03'0 0.3
2017-Oct-02 14:00N 42°22' W 071°03'1 1.3
2017-Oct-02 13:30N 42°21' W 071°02'1 1.5
2017-Oct-02 13:00N 42°22' W 071°03'0 0.5
2017-Oct-02 12:31N 42°21' W 071°03'816.3
2017-Oct-02 12:00N 42°15' W 070°55'612.1
2017-Oct-02 11:31N 42°20' W 071°00'2 5.0
2017-Oct-02 11:00N 42°21' W 071°03'810.9
2017-Oct-02 10:14N 42°15' W 070°55'0 0.8
2017-Oct-02 10:01N 42°15' W 070°55'  
2017-Sep-29 22:04N 42°16' W 070°56'119.6
2017-Sep-29 22:01N 42°17' W 070°56'713.0
2017-Sep-29 21:31N 42°21' W 071°03'611.2
2017-Sep-29 21:01N 42°17' W 070°57'3 5.1
2017-Sep-29 20:30N 42°15' W 070°55'816.5
2017-Sep-29 20:00N 42°21' W 071°03'0 0.0
2017-Sep-29 19:30N 42°21' W 071°03'611.7
2017-Sep-29 19:00N 42°19' W 070°56'3 5.2
2017-Sep-29 18:30N 42°16' W 070°56'815.8
2017-Sep-29 18:01N 42°22' W 071°03'612.4
2017-Sep-29 17:30N 42°18' W 070°56'2 3.6
2017-Sep-29 17:00N 42°18' W 070°58'510.6
2017-Sep-29 16:30N 42°21' W 071°03'0 0.0
2017-Sep-29 16:00N 42°21' W 071°03'0 0.3
2017-Sep-29 15:31N 42°21' W 071°03'1 2.0
2017-Sep-29 15:00N 42°22' W 071°03'1 1.9
2017-Sep-29 14:31N 42°21' W 071°03'0 0.6
2017-Sep-29 14:00N 42°22' W 071°03'0 0.0
2017-Sep-29 13:29N 42°22' W 071°03'0 0.0
2017-Sep-29 13:01N 42°22' W 071°03'0 0.7
2017-Sep-29 12:30N 42°21' W 071°03'810.7
2017-Sep-29 11:45N 42°15' W 070°55'415.9
2017-Sep-29 11:30N 42°18' W 070°59'4 8.8
2017-Sep-29 11:00N 42°21' W 071°03'813.6
2017-Sep-29 10:23N 42°15' W 070°55'0 0.0
2017-Sep-28 22:16N 42°15' W 070°55'1 5.1
2017-Sep-28 22:01N 42°16' W 070°56'714.1
2017-Sep-28 21:30N 42°21' W 071°03'5 9.8
2017-Sep-28 21:00N 42°18' W 070°58'3 6.3
2017-Sep-28 20:29N 42°15' W 070°55'817.4
2017-Sep-28 20:00N 42°21' W 071°03'0 0.1
2017-Sep-28 19:30N 42°21' W 071°03'1 1.3
2017-Sep-28 19:01N 42°22' W 071°02'0 0.4
2017-Sep-28 18:30N 42°22' W 071°02'0 1.0
2017-Sep-28 18:01N 42°22' W 071°03'1 1.6
2017-Sep-28 17:31N 42°21' W 071°02'1 1.3
2017-Sep-28 17:01N 42°22' W 071°03'4 7.8
2017-Sep-28 16:31N 42°20' W 070°58'510.4
2017-Sep-28 16:01N 42°15' W 070°55'4 7.5
2017-Sep-28 15:31N 42°19' W 070°56'611.4
2017-Sep-28 15:00N 42°22' W 071°03'0 0.5
2017-Sep-28 14:30N 42°22' W 071°03'0 0.2
2017-Sep-28 14:00N 42°22' W 071°03'612.2
2017-Sep-28 13:31N 42°17' W 070°57'1 2.1
2017-Sep-28 13:01N 42°16' W 070°56'714.1
2017-Sep-28 12:31N 42°21' W 071°03'814.2
2017-Sep-28 11:56N 42°15' W 070°55'511.3
2017-Sep-28 11:31N 42°19' W 070°59'3 7.0
2017-Sep-28 11:00N 42°21' W 071°03'8 0.6
2017-Sep-27 22:13N 42°15' W 070°55'1 6.8
2017-Sep-27 22:00N 42°17' W 070°56'714.0
2017-Sep-27 21:30N 42°21' W 071°03'5 9.3
2017-Sep-27 21:00N 42°18' W 070°58'4 6.6
2017-Sep-27 20:28N 42°15' W 070°55'817.8
2017-Sep-27 20:00N 42°21' W 071°03'0 0.1
2017-Sep-27 19:31N 42°21' W 071°03'2 3.1
2017-Sep-27 19:00N 42°23' W 071°03'0 0.0
2017-Sep-27 18:30N 42°23' W 071°03'1 2.6
2017-Sep-27 18:00N 42°22' W 071°03'0 0.1
2017-Sep-27 17:30N 42°22' W 071°03'0 0.0
2017-Sep-27 17:00N 42°22' W 071°03'0 0.0
2017-Sep-27 16:30N 42°22' W 071°03'0 0.0
2017-Sep-27 16:00N 42°22' W 071°03'0 0.0
2017-Sep-27 15:30N 42°22' W 071°03'0 0.0
2017-Sep-27 15:00N 42°22' W 071°03'0 0.0
2017-Sep-27 14:30N 42°22' W 071°03'0 0.0
2017-Sep-27 14:00N 42°22' W 071°03'0 0.0
2017-Sep-27 13:30N 42°22' W 071°03'0 0.5
2017-Sep-27 13:00N 42°21' W 071°03'714.8
2017-Sep-27 12:30N 42°16' W 070°56'1 1.5
2017-Sep-27 12:00N 42°16' W 070°55'816.3
2017-Sep-27 11:31N 42°21' W 071°03'713.4
2017-Sep-27 11:00N 42°17' W 070°56'2 3.3
2017-Sep-27 10:28N 42°15' W 070°55'0 0.0
2017-Sep-27 10:00N 42°15' W 070°55'1 0.1
2017-Sep-26 22:07N 42°16' W 070°55'113.3
2017-Sep-26 22:00N 42°17' W 070°57'612.8
2017-Sep-26 21:30N 42°21' W 071°03'5 9.4
2017-Sep-26 21:00N 42°18' W 070°58'3 6.9
2017-Sep-26 20:31N 42°16' W 070°55'816.1
2017-Sep-26 20:00N 42°21' W 071°03'0 0.0
2017-Sep-26 19:31N 42°21' W 071°03'816.7
2017-Sep-26 19:00N 42°15' W 070°55'0 0.1
2017-Sep-26 18:28N 42°15' W 070°55'0 0.0
2017-Sep-26 15:57N 42°15' W 070°55'0 0.0
2017-Sep-26 15:28N 42°15' W 070°55'715.3
2017-Sep-26 15:01N 42°21' W 071°01'1 2.9
2017-Sep-26 14:30N 42°22' W 071°03'0 0.6
2017-Sep-26 13:59N 42°22' W 071°03'  

Dump ship's entire track history